Saunemin, Illinois
Current Conditions -  °F | °C
As of 9:15 AM on Thursday 23 Oct 2014 (Local Time) from KPNT Reporting Station
Clear Clear  
Wind Chill: 41°   Ceiling: Unl
Heat Index: 44°   Visibility: 10mi
Dew Point: 41°   Wind: 6mph
Humidity: 87%   Direction: 170°S
Pressure: 30.23"   Gusts: NA
Location:  40.89°N, 88.41°W
Report Text: KPNT 231415Z AUTO 17005KT 10SM CLR 07/05 A3023 RMK AO2 T00690048
Loading
Personal Weather Stations






























Interactive Weather Map
Tropical Storm Tracking
New forecast layout! Learn more

10-Day Weather Forecast

Advertisements
Track Severe Weather on mobile